createdAt,value
2018-09-18T00:01:10.492Z,53.30
2018-09-18T00:03:38.721Z,53.30
2018-09-18T00:06:06.997Z,53.90
2018-09-18T00:08:35.248Z,54.10
2018-09-18T00:11:03.732Z,54.20
2018-09-18T00:13:32.442Z,53.40
2018-09-18T00:16:01.816Z,53.90
2018-09-18T00:18:30.082Z,54.00
2018-09-18T00:20:58.302Z,54.30
2018-09-18T00:23:26.745Z,54.50
2018-09-18T00:25:56.079Z,54.50
2018-09-18T00:28:25.122Z,54.60
2018-09-18T00:30:53.397Z,54.50
2018-09-18T00:33:21.988Z,54.50
2018-09-18T00:35:50.366Z,54.40
2018-09-18T00:38:19.003Z,55.30
2018-09-18T00:40:47.258Z,55.10
2018-09-18T00:43:15.762Z,55.00
2018-09-18T00:45:44.246Z,54.80
2018-09-18T00:48:12.465Z,54.90
2018-09-18T00:50:40.975Z,55.10
2018-09-18T00:53:09.584Z,55.30
2018-09-18T00:55:38.125Z,55.40
2018-09-18T00:58:06.363Z,55.70
2018-09-18T01:00:34.591Z,55.20
2018-09-18T01:03:02.900Z,54.90
2018-09-18T01:05:31.555Z,54.80
2018-09-18T01:08:00.626Z,54.30
2018-09-18T01:10:29.029Z,54.50
2018-09-18T01:12:58.146Z,54.30
2018-09-18T01:15:26.793Z,54.20
2018-09-18T01:17:55.646Z,54.60
2018-09-18T01:20:23.855Z,54.50
2018-09-18T01:22:52.306Z,54.20
2018-09-18T01:27:48.970Z,53.80
2018-09-18T01:30:17.194Z,54.10
2018-09-18T01:32:45.724Z,54.00
2018-09-18T01:35:13.971Z,54.30
2018-09-18T01:37:42.217Z,55.00
2018-09-18T01:40:10.474Z,54.90
2018-09-18T01:42:38.714Z,55.20
2018-09-18T01:45:07.310Z,54.80
2018-09-18T01:47:35.815Z,54.80
2018-09-18T01:50:04.745Z,55.00
2018-09-18T01:52:33.472Z,55.10
2018-09-18T01:55:01.752Z,55.50
2018-09-18T01:57:30.811Z,55.40
2018-09-18T01:59:59.693Z,55.10
2018-09-18T02:02:28.057Z,55.10
2018-09-18T02:04:56.800Z,55.00
2018-09-18T02:07:25.572Z,54.80
2018-09-18T02:09:53.802Z,55.00
2018-09-18T02:12:22.387Z,55.00
2018-09-18T02:14:51.400Z,55.00
2018-09-18T02:17:20.335Z,54.70
2018-09-18T02:19:48.598Z,54.90
2018-09-18T02:22:16.896Z,55.00
2018-09-18T02:24:46.867Z,55.20
2018-09-18T02:27:15.428Z,55.60
2018-09-18T02:29:44.062Z,55.50
2018-09-18T02:32:12.308Z,55.40
2018-09-18T02:34:44.191Z,55.30
2018-09-18T02:37:12.570Z,55.50
2018-09-18T02:39:41.124Z,55.30
2018-09-18T02:42:09.733Z,55.40
2018-09-18T02:44:37.999Z,55.50
2018-09-18T02:47:06.575Z,55.60
2018-09-18T02:49:34.886Z,55.60
2018-09-18T02:52:03.666Z,55.60
2018-09-18T02:54:33.877Z,55.70
2018-09-18T02:57:02.173Z,55.90
2018-09-18T02:59:30.469Z,56.10
2018-09-18T03:01:58.972Z,56.20
2018-09-18T03:04:27.183Z,56.10
2018-09-18T03:06:55.381Z,55.90
2018-09-18T03:09:23.938Z,56.20
2018-09-18T03:11:52.788Z,56.40
2018-09-18T03:14:21.363Z,56.50
2018-09-18T03:19:19.292Z,56.10
2018-09-18T03:21:47.897Z,56.70
2018-09-18T03:24:16.173Z,56.80
2018-09-18T03:26:44.897Z,56.90
2018-09-18T03:29:13.481Z,57.10
2018-09-18T03:31:41.706Z,57.20
2018-09-18T03:34:10.221Z,57.20
2018-09-18T03:36:39.000Z,57.40
2018-09-18T03:39:08.029Z,57.60
2018-09-18T03:41:36.251Z,57.30
2018-09-18T03:44:04.736Z,57.80
2018-09-18T03:46:33.010Z,58.30
2018-09-18T03:49:01.517Z,58.00
2018-09-18T03:54:04.965Z,58.70
2018-09-18T03:56:35.479Z,59.00
2018-09-18T03:59:05.339Z,59.00
2018-09-18T04:01:35.323Z,59.00
2018-09-18T04:04:05.526Z,59.10
2018-09-18T04:06:40.595Z,59.40
2018-09-18T04:09:10.340Z,59.40
2018-09-18T04:11:38.848Z,59.30
2018-09-18T04:14:07.879Z,59.30
2018-09-18T04:16:36.440Z,58.80
2018-09-18T04:19:05.281Z,59.20
2018-09-18T04:21:42.133Z,59.30
2018-09-18T04:24:10.793Z,59.60
2018-09-18T04:26:40.661Z,59.80
2018-09-18T04:29:09.623Z,59.90
2018-09-18T04:31:40.246Z,60.10
2018-09-18T04:34:08.785Z,60.10
2018-09-18T04:36:37.012Z,60.20
2018-09-18T04:39:10.767Z,61.10
2018-09-18T04:41:39.098Z,60.40
2018-09-18T04:44:08.559Z,60.70
2018-09-18T04:46:36.948Z,60.70
2018-09-18T04:49:05.225Z,60.90
2018-09-18T04:51:33.724Z,61.10
2018-09-18T04:54:01.953Z,61.30
2018-09-18T04:56:30.571Z,61.40
2018-09-18T04:58:59.845Z,61.30
2018-09-18T05:01:28.456Z,61.60
2018-09-18T05:04:03.696Z,61.90
2018-09-18T05:06:32.382Z,61.70
2018-09-18T05:09:00.616Z,61.90
2018-09-18T05:11:29.613Z,62.00
2018-09-18T05:13:57.935Z,62.00
2018-09-18T05:16:26.543Z,61.90
2018-09-18T05:18:55.736Z,61.10
2018-09-18T05:21:24.016Z,61.00
2018-09-18T05:23:52.336Z,61.00
2018-09-18T05:26:20.580Z,60.10
2018-09-18T05:28:48.888Z,60.60
2018-09-18T05:31:17.383Z,60.80
2018-09-18T05:33:45.902Z,60.50
2018-09-18T05:36:14.758Z,60.30
2018-09-18T05:38:43.079Z,60.30
2018-09-18T05:41:11.641Z,60.40
2018-09-18T05:43:39.880Z,60.30
2018-09-18T05:46:08.721Z,59.60
2018-09-18T05:48:37.185Z,60.20
2018-09-18T05:51:05.244Z,60.20
2018-09-18T05:53:33.433Z,60.00
2018-09-18T05:56:02.410Z,59.80
2018-09-18T05:58:30.636Z,60.00
2018-09-18T06:00:58.925Z,59.90
2018-09-18T06:03:27.562Z,59.70
2018-09-18T06:05:56.218Z,59.30
2018-09-18T06:08:24.569Z,59.50
2018-09-18T06:10:52.814Z,58.60
2018-09-18T06:13:21.385Z,58.60
2018-09-18T06:15:50.176Z,58.30
2018-09-18T06:18:18.892Z,58.10
2018-09-18T06:20:47.961Z,57.20
2018-09-18T06:23:17.363Z,57.70
2018-09-18T06:25:45.605Z,57.40
2018-09-18T06:28:13.832Z,57.20
2018-09-18T06:30:42.094Z,57.00
2018-09-18T06:33:10.400Z,56.70
2018-09-18T06:35:38.670Z,55.30
2018-09-18T06:38:07.335Z,55.70
2018-09-18T06:40:36.252Z,55.60
2018-09-18T06:43:05.269Z,55.20
2018-09-18T06:45:34.231Z,55.10
2018-09-18T06:48:02.829Z,54.90
2018-09-18T06:50:31.155Z,54.80
2018-09-18T06:52:59.512Z,54.80
2018-09-18T06:55:28.090Z,54.30
2018-09-18T06:57:57.664Z,53.90
2018-09-18T07:00:26.031Z,53.60
2018-09-18T07:02:54.523Z,53.20
2018-09-18T07:05:22.783Z,53.00
2018-09-18T07:07:52.183Z,52.80
2018-09-18T07:10:21.517Z,52.70
2018-09-18T07:12:51.485Z,52.30
2018-09-18T07:15:22.234Z,52.40
2018-09-18T07:17:50.551Z,52.10
2018-09-18T07:20:19.277Z,52.00
2018-09-18T07:22:48.327Z,51.80
2018-09-18T07:25:17.606Z,51.20
2018-09-18T07:27:46.246Z,51.50
2018-09-18T07:30:14.481Z,50.50
2018-09-18T07:32:43.535Z,51.10
2018-09-18T07:35:11.836Z,50.40
2018-09-18T07:37:40.945Z,50.40
2018-09-18T07:40:09.304Z,50.20
2018-09-18T07:42:37.656Z,50.00
2018-09-18T07:45:06.304Z,49.40
2018-09-18T07:47:34.624Z,49.40
2018-09-18T07:50:04.220Z,49.30
2018-09-18T07:52:33.296Z,49.00
2018-09-18T07:55:02.321Z,48.80
2018-09-18T07:57:31.476Z,48.40
2018-09-18T08:00:00.095Z,48.30
2018-09-18T08:02:28.664Z,48.10
2018-09-18T08:04:58.182Z,48.00
2018-09-18T08:07:26.635Z,47.10
2018-09-18T08:09:54.974Z,47.50
2018-09-18T08:12:23.866Z,47.30
2018-09-18T08:14:52.436Z,47.50
2018-09-18T08:17:21.076Z,46.30
2018-09-18T08:19:49.672Z,46.30
2018-09-18T08:22:18.056Z,46.40
2018-09-18T08:24:49.520Z,46.80
2018-09-18T08:27:18.414Z,46.50
2018-09-18T08:29:49.927Z,46.30
2018-09-18T08:32:18.721Z,46.00
2018-09-18T08:34:47.164Z,45.80
2018-09-18T08:37:15.748Z,45.00
2018-09-18T08:39:44.071Z,45.50
2018-09-18T08:42:13.384Z,44.50
2018-09-18T08:44:43.051Z,45.00
2018-09-18T08:47:11.340Z,44.90
2018-09-18T08:49:39.685Z,44.60
2018-09-18T08:52:08.310Z,44.50
2018-09-18T08:54:36.985Z,44.20
2018-09-18T08:57:05.294Z,43.20
2018-09-18T08:59:33.701Z,43.80
2018-09-18T09:02:02.708Z,43.80
2018-09-18T09:04:31.747Z,43.10
2018-09-18T09:07:00.232Z,42.80
2018-09-18T09:09:29.733Z,42.80
2018-09-18T09:11:58.928Z,42.70
2018-09-18T09:14:27.753Z,42.40
2018-09-18T09:16:56.384Z,42.20
2018-09-18T09:19:24.622Z,41.80
2018-09-18T09:21:53.794Z,40.90
2018-09-18T09:24:22.337Z,41.50
2018-09-18T09:26:51.239Z,41.10
2018-09-18T09:29:20.241Z,39.80
2018-09-18T09:31:49.522Z,40.10
2018-09-18T09:34:21.848Z,39.50
2018-09-18T09:36:51.108Z,39.70
2018-09-18T09:39:19.766Z,39.40
2018-09-18T09:41:48.850Z,39.00
2018-09-18T09:44:17.085Z,38.60
2018-09-18T09:46:45.293Z,38.70
2018-09-18T09:49:13.520Z,37.80
2018-09-18T09:51:41.961Z,37.80
2018-09-18T09:54:10.756Z,37.50
2018-09-18T09:56:39.218Z,37.10
2018-09-18T09:59:08.988Z,36.80
2018-09-18T10:01:42.287Z,35.90
2018-09-18T10:04:10.656Z,36.00
2018-09-18T10:06:39.241Z,36.10
2018-09-18T10:09:10.774Z,35.50
2018-09-18T10:11:39.187Z,35.00
2018-09-18T10:14:08.505Z,34.50
2018-09-18T10:16:36.752Z,34.20
2018-09-18T10:19:05.168Z,32.70
2018-09-18T10:21:33.402Z,33.20
2018-09-18T10:24:02.154Z,32.70
2018-09-18T10:26:30.690Z,32.90
2018-09-18T10:28:59.278Z,32.20
2018-09-18T10:31:27.963Z,31.60
2018-09-18T10:33:56.850Z,31.10
2018-09-18T10:36:25.948Z,30.50
2018-09-18T10:38:54.410Z,30.10
2018-09-18T10:41:22.884Z,30.00
2018-09-18T10:43:51.403Z,29.60
2018-09-18T10:46:20.165Z,29.30
2018-09-18T10:48:49.580Z,27.30
2018-09-18T10:51:18.371Z,27.30
2018-09-18T10:53:46.584Z,27.90
2018-09-18T10:56:15.087Z,27.00
2018-09-18T10:58:43.673Z,27.20
2018-09-18T11:01:12.172Z,26.80
2018-09-18T11:03:41.500Z,25.40
2018-09-18T11:06:11.927Z,25.90
2018-09-18T11:08:43.451Z,25.70
2018-09-18T11:11:15.090Z,25.20
2018-09-18T11:13:45.319Z,25.50
2018-09-18T11:16:16.235Z,25.00
2018-09-18T11:18:46.511Z,25.30
2018-09-18T11:21:15.110Z,25.30
2018-09-18T11:23:43.668Z,25.20
2018-09-18T11:26:14.354Z,25.70
2018-09-18T11:28:42.804Z,25.70
2018-09-18T11:31:11.272Z,25.70
2018-09-18T11:33:39.865Z,25.00
2018-09-18T11:36:08.428Z,24.60
2018-09-18T11:38:38.324Z,25.00
2018-09-18T11:41:06.787Z,24.80
2018-09-18T11:43:37.553Z,24.20
2018-09-18T11:46:06.072Z,24.30
2018-09-18T11:48:34.098Z,23.50
2018-09-18T11:51:03.044Z,23.20
2018-09-18T11:53:31.591Z,22.70
2018-09-18T11:55:59.852Z,23.00
2018-09-18T11:58:28.395Z,23.10
2018-09-18T12:00:56.811Z,23.30
2018-09-18T12:03:25.038Z,24.30
2018-09-18T12:05:53.269Z,24.60
2018-09-18T12:08:21.536Z,24.30
2018-09-18T12:10:49.840Z,23.80
2018-09-18T12:13:18.309Z,24.00
2018-09-18T12:15:47.825Z,23.70
2018-09-18T12:18:16.313Z,23.70
2018-09-18T12:20:46.405Z,23.80
2018-09-18T12:23:14.737Z,23.80
2018-09-18T12:25:43.574Z,23.90
2018-09-18T12:28:12.208Z,24.10
2018-09-18T12:30:40.458Z,24.40
2018-09-18T12:33:09.206Z,24.10
2018-09-18T12:35:38.059Z,24.10
2018-09-18T12:40:46.474Z,23.50
2018-09-18T12:43:15.381Z,23.50
2018-09-18T12:45:44.196Z,24.00
2018-09-18T12:50:41.161Z,21.90
2018-09-18T12:53:09.805Z,21.40
2018-09-18T12:55:39.793Z,21.30
2018-09-18T12:58:09.151Z,21.80
2018-09-18T13:00:37.479Z,21.80
2018-09-18T13:03:06.495Z,20.20
2018-09-18T13:05:34.971Z,20.60
2018-09-18T13:08:07.048Z,21.60
2018-09-18T13:10:35.873Z,22.30
2018-09-18T13:13:04.617Z,22.70
2018-09-18T13:15:33.887Z,22.60
2018-09-18T13:18:02.165Z,22.40
2018-09-18T13:20:31.648Z,22.40
2018-09-18T13:23:00.186Z,21.80
2018-09-18T13:25:28.941Z,22.00
2018-09-18T13:27:57.304Z,20.20
2018-09-18T13:30:25.502Z,20.50
2018-09-18T13:32:53.718Z,20.40
2018-09-18T13:35:21.956Z,20.60
2018-09-18T13:37:50.535Z,19.20
2018-09-18T13:40:18.908Z,19.50
2018-09-18T13:42:47.120Z,18.20
2018-09-18T13:45:15.718Z,17.00
2018-09-18T13:47:44.972Z,15.40
2018-09-18T13:50:14.359Z,14.20
2018-09-18T13:52:42.642Z,14.80
2018-09-18T13:55:11.219Z,16.70
2018-09-18T13:57:39.645Z,17.50
2018-09-18T14:00:08.304Z,18.80
2018-09-18T14:02:36.545Z,19.30
2018-09-18T14:05:05.462Z,18.80
2018-09-18T14:07:33.807Z,19.20
2018-09-18T14:10:03.518Z,19.90
2018-09-18T14:12:34.392Z,18.00
2018-09-18T14:15:02.770Z,18.20
2018-09-18T14:17:30.975Z,17.30
2018-09-18T14:19:59.260Z,16.40
2018-09-18T14:22:27.766Z,15.10
2018-09-18T14:24:58.065Z,14.20
2018-09-18T14:27:26.349Z,13.90
2018-09-18T14:29:54.764Z,14.10
2018-09-18T14:32:23.340Z,15.40
2018-09-18T14:34:53.224Z,15.10
2018-09-18T14:37:21.563Z,12.80
2018-09-18T14:39:49.879Z,12.40
2018-09-18T14:42:18.811Z,13.50
2018-09-18T14:44:47.156Z,13.60
2018-09-18T14:47:15.436Z,14.00
2018-09-18T14:49:43.981Z,16.40
2018-09-18T14:52:13.112Z,16.90
2018-09-18T14:54:42.723Z,17.20
2018-09-18T14:57:11.399Z,17.60
2018-09-18T14:59:40.141Z,17.40
2018-09-18T15:02:08.678Z,17.10
2018-09-18T15:04:37.650Z,17.50
2018-09-18T15:07:06.067Z,17.30
2018-09-18T15:09:35.133Z,18.30
2018-09-18T15:12:04.003Z,19.70
2018-09-18T15:14:32.965Z,21.90
2018-09-18T15:17:01.593Z,23.20
2018-09-18T15:19:30.509Z,23.80
2018-09-18T15:21:59.221Z,24.60
2018-09-18T15:24:27.508Z,25.40
2018-09-18T15:26:56.012Z,25.60
2018-09-18T15:29:24.513Z,26.20
2018-09-18T15:34:22.113Z,26.20
2018-09-18T15:36:52.157Z,27.30
2018-09-18T15:39:20.409Z,26.90
2018-09-18T15:44:17.670Z,27.10
2018-09-18T15:46:46.877Z,27.50
2018-09-18T15:49:15.800Z,28.00
2018-09-18T15:51:44.528Z,28.40
2018-09-18T15:54:13.049Z,28.60
2018-09-18T15:56:42.337Z,28.90
2018-09-18T15:59:10.697Z,29.20
2018-09-18T16:01:39.232Z,29.30
2018-09-18T16:04:07.878Z,29.60
2018-09-18T16:06:36.144Z,29.70
2018-09-18T16:09:09.314Z,30.00
2018-09-18T16:11:38.225Z,30.00
2018-09-18T16:14:07.351Z,30.50
2018-09-18T16:16:36.968Z,30.60
2018-09-18T16:19:05.958Z,30.50
2018-09-18T16:21:34.587Z,31.10
2018-09-18T16:24:03.785Z,30.90
2018-09-18T16:29:01.567Z,31.30
2018-09-18T16:31:31.045Z,31.90
2018-09-18T16:34:00.540Z,31.90
2018-09-18T16:36:29.286Z,32.30
2018-09-18T16:38:58.765Z,32.80
2018-09-18T16:41:27.118Z,32.80
2018-09-18T16:43:56.419Z,33.50
2018-09-18T16:46:25.261Z,34.00
2018-09-18T16:53:51.364Z,35.10
2018-09-18T16:56:19.995Z,35.50
2018-09-18T16:58:48.396Z,35.40
2018-09-18T17:01:17.069Z,35.40
2018-09-18T17:03:45.430Z,36.30
2018-09-18T17:06:13.734Z,35.90
2018-09-18T17:08:42.241Z,35.80
2018-09-18T17:11:10.880Z,35.80
2018-09-18T17:13:39.738Z,35.10
2018-09-18T17:16:08.270Z,35.60
2018-09-18T17:18:36.590Z,35.10
2018-09-18T17:21:04.791Z,33.80
2018-09-18T17:23:33.412Z,34.40
2018-09-18T17:26:01.762Z,33.60
2018-09-18T17:28:30.240Z,32.70
2018-09-18T17:30:58.654Z,33.30
2018-09-18T17:33:27.669Z,34.60
2018-09-18T17:38:24.444Z,34.80
2018-09-18T17:40:53.373Z,34.80
2018-09-18T17:43:21.949Z,35.40
2018-09-18T17:45:50.253Z,34.80
2018-09-18T17:48:19.233Z,35.40
2018-09-18T17:50:48.349Z,35.20
2018-09-18T17:53:16.579Z,35.60
2018-09-18T17:55:44.805Z,34.50
2018-09-18T17:58:13.053Z,35.00
2018-09-18T18:00:41.439Z,35.30
2018-09-18T18:03:10.276Z,33.30
2018-09-18T18:05:38.768Z,31.20
2018-09-18T18:08:07.330Z,30.60
2018-09-18T18:10:35.633Z,30.50
2018-09-18T18:13:03.882Z,31.30
2018-09-18T18:15:32.770Z,32.40
2018-09-18T18:18:01.053Z,33.10
2018-09-18T18:20:30.038Z,33.30
2018-09-18T18:22:58.426Z,33.80
2018-09-18T18:25:26.688Z,33.50
2018-09-18T18:27:55.361Z,33.20
2018-09-18T18:30:23.809Z,33.00
2018-09-18T18:32:52.384Z,33.50
2018-09-18T18:35:20.881Z,35.00
2018-09-18T18:37:50.327Z,37.30
2018-09-18T18:40:19.380Z,37.10
2018-09-18T18:42:47.641Z,38.50
2018-09-18T18:45:16.138Z,38.60
2018-09-18T18:47:45.287Z,38.90
2018-09-18T18:50:13.737Z,34.20
2018-09-18T18:52:42.348Z,34.40
2018-09-18T18:55:11.605Z,35.00
2018-09-18T18:57:40.679Z,35.50
2018-09-18T19:00:09.018Z,35.30
2018-09-18T19:02:37.848Z,34.20
2018-09-18T19:05:06.288Z,34.10
2018-09-18T19:07:35.205Z,34.10
2018-09-18T19:10:04.242Z,34.20
2018-09-18T19:12:33.248Z,34.30
2018-09-18T19:15:01.588Z,34.10
2018-09-18T19:17:29.862Z,34.90
2018-09-18T19:19:59.502Z,34.60
2018-09-18T19:22:28.739Z,35.20
2018-09-18T19:24:58.032Z,36.00
2018-09-18T19:27:26.298Z,35.30
2018-09-18T19:29:55.400Z,35.50
2018-09-18T19:32:23.667Z,35.80
2018-09-18T19:34:52.824Z,35.80
2018-09-18T19:37:21.430Z,35.90
2018-09-18T19:39:49.947Z,35.80
2018-09-18T19:42:18.252Z,36.00
2018-09-18T19:44:47.165Z,36.00
2018-09-18T19:47:16.434Z,36.60
2018-09-18T19:49:44.774Z,36.90
2018-09-18T19:52:13.454Z,36.70
2018-09-18T19:54:42.334Z,36.70
2018-09-18T19:57:11.024Z,37.00
2018-09-18T19:59:39.320Z,36.50
2018-09-18T20:02:08.759Z,37.00
2018-09-18T20:04:37.141Z,37.10
2018-09-18T20:07:05.569Z,37.10
2018-09-18T20:09:33.811Z,36.80
2018-09-18T20:12:02.106Z,37.20
2018-09-18T20:14:31.192Z,37.60
2018-09-18T20:16:59.812Z,37.70
2018-09-18T20:19:28.227Z,37.10
2018-09-18T20:21:56.765Z,37.90
2018-09-18T20:24:25.014Z,37.80
2018-09-18T20:26:53.312Z,38.00
2018-09-18T20:29:21.916Z,39.20
2018-09-18T20:31:50.542Z,38.40
2018-09-18T20:34:18.844Z,38.40
2018-09-18T20:36:47.166Z,38.20
2018-09-18T20:39:15.393Z,38.40
2018-09-18T20:41:43.721Z,38.50
2018-09-18T20:44:12.276Z,39.70
2018-09-18T20:46:40.822Z,39.30
2018-09-18T20:49:09.200Z,39.50
2018-09-18T20:51:37.984Z,39.30
2018-09-18T20:54:06.220Z,39.30
2018-09-18T20:56:34.808Z,39.30
2018-09-18T20:59:03.173Z,39.60
2018-09-18T21:01:31.819Z,39.60
2018-09-18T21:06:28.425Z,39.80
2018-09-18T21:08:57.023Z,40.50
2018-09-18T21:11:25.354Z,40.80
2018-09-18T21:13:53.677Z,41.10
2018-09-18T21:16:23.764Z,40.80
2018-09-18T21:18:52.312Z,41.30
2018-09-18T21:21:20.869Z,41.60
2018-09-18T21:23:49.134Z,41.60
2018-09-18T21:26:18.521Z,41.70
2018-09-18T21:28:48.901Z,41.80
2018-09-18T21:31:18.236Z,41.80
2018-09-18T21:33:46.777Z,41.80
2018-09-18T21:36:15.380Z,42.10
2018-09-18T21:38:45.049Z,41.70
2018-09-18T21:41:15.429Z,42.40
2018-09-18T21:43:43.786Z,42.80
2018-09-18T21:46:12.656Z,41.90
2018-09-18T21:51:13.364Z,41.50
2018-09-18T21:53:43.378Z,42.40
2018-09-18T21:56:13.435Z,43.00
2018-09-18T21:58:42.065Z,43.60
2018-09-18T22:01:13.552Z,42.90
2018-09-18T22:03:42.359Z,43.00
2018-09-18T22:06:10.833Z,42.90
2018-09-18T22:08:44.830Z,42.30
2018-09-18T22:11:13.090Z,42.30
2018-09-18T22:13:41.464Z,42.90
2018-09-18T22:16:09.730Z,42.90
2018-09-18T22:18:38.572Z,42.90
2018-09-18T22:21:06.982Z,42.20
2018-09-18T22:23:35.686Z,42.60
2018-09-18T22:26:04.582Z,42.20
2018-09-18T22:28:35.459Z,42.70
2018-09-18T22:31:05.760Z,42.70
2018-09-18T22:33:34.084Z,42.70
2018-09-18T22:36:03.059Z,42.70
2018-09-18T22:38:33.039Z,42.20
2018-09-18T22:41:01.574Z,42.70
2018-09-18T22:43:30.052Z,43.00
2018-09-18T22:45:59.202Z,42.90
2018-09-18T22:48:28.882Z,43.40
2018-09-18T22:50:57.163Z,43.30
2018-09-18T22:53:26.194Z,43.90
2018-09-18T22:55:54.768Z,44.10
2018-09-18T22:58:23.098Z,44.20
2018-09-18T23:00:51.748Z,44.30
2018-09-18T23:03:20.421Z,44.50
2018-09-18T23:05:48.692Z,44.50
2018-09-18T23:08:17.756Z,44.80
2018-09-18T23:10:46.066Z,45.10
2018-09-18T23:13:15.021Z,45.40
2018-09-18T23:15:43.526Z,45.70
2018-09-18T23:18:11.775Z,45.90
2018-09-18T23:20:40.325Z,46.10
2018-09-18T23:23:09.659Z,46.40
2018-09-18T23:25:37.995Z,47.20
2018-09-18T23:28:06.356Z,47.30
2018-09-18T23:30:34.969Z,47.20
2018-09-18T23:33:03.167Z,48.00
2018-09-18T23:35:31.902Z,48.80
2018-09-18T23:38:00.130Z,49.40
2018-09-18T23:40:29.307Z,49.80
2018-09-18T23:42:58.060Z,50.10
2018-09-18T23:45:26.663Z,50.60
2018-09-18T23:47:54.876Z,50.90
2018-09-18T23:50:23.429Z,51.00
2018-09-18T23:52:53.000Z,51.20
2018-09-18T23:55:21.513Z,51.50
2018-09-18T23:57:49.753Z,51.70
